Time;durP1;ratioP1;P1;durP2;ratioP2;P2;SDS_P1;SDS_P2;PMS_P1;PMS_P2;Temp;Humidity;BMP_temperature;BMP_pressure;BME280_temperature;BME280_humidity;BME280_pressure;Samples;Min_cycle;Max_cycle;Signal;HPM_P1;HPM_P2
2023/05/30 00:01:23;;;;;;;3.42;3.08;;;;;;;16.14;69.96;96583.72;5047353;28;20215;-60
2023/05/30 00:03:50;;;;;;;3.22;3.03;;;;;;;16.12;69.96;96591.09;5050281;28;20203;-58
2023/05/30 00:06:17;;;;;;;3.30;3.00;;;;;;;16.09;69.86;96588.75;5053442;28;20276;-58
2023/05/30 00:08:45;;;;;;;3.63;3.08;;;;;;;16.00;70.64;96582.66;5054188;28;20215;-57
2023/05/30 00:11:13;;;;;;;3.58;3.28;;;;;;;15.94;72.56;96591.38;5054489;28;20651;-58
2023/05/30 00:13:42;;;;;;;2.92;2.70;;;;;;;15.85;72.92;96589.75;5056363;28;20538;-58
2023/05/30 00:16:08;;;;;;;3.42;3.20;;;;;;;15.83;72.00;96592.63;5056459;28;20211;-59
2023/05/30 00:18:35;;;;;;;3.15;2.85;;;;;;;15.80;73.28;96586.81;5055193;28;20217;-58
2023/05/30 00:21:03;;;;;;;3.75;3.33;;;;;;;15.65;72.99;96589.41;5053737;28;20239;-59
2023/05/30 00:23:32;;;;;;;3.63;3.33;;;;;;;15.69;74.13;96582.72;5051675;28;20218;-60
2023/05/30 00:26:03;;;;;;;4.10;2.80;;;;;;;15.75;72.23;96581.16;5049893;28;20314;-59
2023/05/30 00:28:29;;;;;;;3.78;3.17;;;;;;;15.59;73.23;96579.41;5046381;28;20207;-55
2023/05/30 00:30:58;;;;;;;3.60;3.30;;;;;;;15.67;72.89;96582.06;5068510;28;20207;-57
2023/05/30 00:33:26;;;;;;;3.15;2.85;;;;;;;15.68;73.02;96580.22;5070247;28;20548;-56
2023/05/30 00:35:53;;;;;;;3.70;3.40;;;;;;;15.55;73.46;96586.13;5069866;28;20203;-54
2023/05/30 00:38:20;;;;;;;3.78;3.00;;;;;;;15.46;73.41;96584.47;5057589;28;20207;-54
2023/05/30 00:40:47;;;;;;;4.40;3.25;;;;;;;15.58;72.62;96583.13;5057645;28;20214;-56
2023/05/30 00:43:15;;;;;;;3.30;3.05;;;;;;;15.50;74.63;96583.16;5056792;28;20207;-57
2023/05/30 00:45:42;;;;;;;3.50;3.20;;;;;;;15.48;72.53;96577.13;5057295;28;20357;-58
2023/05/30 00:48:09;;;;;;;6.97;3.10;;;;;;;15.48;70.17;96577.13;5059839;28;20218;-54
2023/05/30 00:50:36;;;;;;;4.93;3.58;;;;;;;15.51;70.64;96584.81;5069748;28;20207;-54
2023/05/30 00:53:04;;;;;;;3.47;3.17;;;;;;;15.44;72.21;96584.63;5071171;28;20222;-56
2023/05/30 00:55:31;;;;;;;5.03;3.23;;;;;;;15.36;73.82;96578.53;5064475;28;20207;-57
2023/05/30 00:57:58;;;;;;;4.77;3.00;;;;;;;15.40;74.44;96580.69;5058289;28;20207;-54
2023/05/30 01:00:27;;;;;;;3.35;3.05;;;;;;;15.45;73.38;96577.47;5056851;28;20211;-56
2023/05/30 01:02:57;;;;;;;3.50;3.15;;;;;;;15.38;73.80;96581.84;5057268;28;20531;-58
2023/05/30 01:05:24;;;;;;;4.10;3.30;;;;;;;15.42;73.67;96577.81;5065424;28;20521;-56
2023/05/30 01:07:52;;;;;;;3.70;3.40;;;;;;;15.34;73.15;96576.03;5053552;28;20211;-54
2023/05/30 01:10:18;;;;;;;6.10;3.50;;;;;;;15.33;72.81;96574.38;5148298;22;20315;-54
2023/05/30 01:12:48;;;;;;;5.35;3.30;;;;;;;15.34;73.64;96575.19;5031726;28;20200;-55
2023/05/30 01:15:19;;;;;;;4.22;3.20;;;;;;;15.25;72.85;96577.09;5036817;28;20214;-56
2023/05/30 01:17:57;;;;;;;3.73;3.40;;;;;;;15.25;72.56;96584.25;5037123;28;20199;-55
2023/05/30 01:20:24;;;;;;;5.80;3.47;;;;;;;15.21;73.57;96585.59;5037010;28;20208;-55
2023/05/30 01:23:20;;;;;;;4.05;3.65;;;;;;;15.18;74.25;96580.59;5036740;28;20211;-56
2023/05/30 01:25:59;;;;;;;3.72;3.42;;;;;;;15.25;74.34;96581.56;5025960;28;20212;-58
2023/05/30 01:28:28;;;;;;;3.37;3.00;;;;;;;15.20;72.98;96586.56;5036843;28;20203;-57
2023/05/30 01:30:56;;;;;;;3.53;3.23;;;;;;;15.07;73.47;96588.97;5017239;28;20199;-56
2023/05/30 01:33:23;;;;;;;4.27;3.57;;;;;;;15.05;73.30;96591.00;5034595;28;20212;-55
2023/05/30 01:35:50;;;;;;;5.13;3.40;;;;;;;15.04;72.53;96590.16;5036322;28;20211;-53
2023/05/30 01:38:17;;;;;;;3.70;3.33;;;;;;;14.89;73.90;96592.69;5036877;28;20218;-56
2023/05/30 01:40:45;;;;;;;4.80;3.57;;;;;;;14.83;75.11;96593.38;5035603;28;20208;-57
2023/05/30 01:43:16;;;;;;;5.33;3.90;;;;;;;14.78;74.24;96590.38;5036426;28;20206;-57
2023/05/30 01:45:50;;;;;;;3.77;3.47;;;;;;;14.76;74.57;96600.38;5036274;28;20294;-57
2023/05/30 01:48:24;;;;;;;5.13;3.10;;;;;;;14.72;76.43;96596.41;5034855;28;20215;-57
2023/05/30 01:50:51;;;;;;;3.97;3.57;;;;;;;14.61;76.34;96603.91;5036672;28;20212;-56
2023/05/30 01:53:23;;;;;;;3.67;3.37;;;;;;;14.58;76.77;96602.41;5035110;28;20219;-57
2023/05/30 01:55:52;;;;;;;5.10;3.33;;;;;;;14.54;77.12;96598.44;5036064;28;20679;-57
2023/05/30 01:58:20;;;;;;;3.77;3.47;;;;;;;14.54;77.52;96603.75;5036420;28;20215;-57
2023/05/30 02:00:50;;;;;;;4.00;3.60;;;;;;;14.51;78.49;96593.44;5022396;28;20659;-55
2023/05/30 02:03:16;;;;;;;5.60;3.77;;;;;;;14.49;78.49;96600.75;5036206;28;20207;-55
2023/05/30 02:05:43;;;;;;;5.00;3.40;;;;;;;14.41;78.97;96604.28;5036373;28;20212;-55
2023/05/30 02:08:09;;;;;;;4.17;3.53;;;;;;;14.46;78.21;96603.75;5024947;28;20212;-57
2023/05/30 02:10:36;;;;;;;4.27;3.90;;;;;;;14.39;79.61;96600.09;5035640;28;20234;-57
2023/05/30 02:13:02;;;;;;;3.90;3.60;;;;;;;14.30;79.39;96593.94;5035282;28;20219;-57
2023/05/30 02:15:29;;;;;;;5.83;4.10;;;;;;;14.25;78.47;96604.22;5035754;28;20211;-58
2023/05/30 02:17:59;;;;;;;4.17;3.77;;;;;;;14.30;78.03;96606.41;5035712;28;20204;-57
2023/05/30 02:20:25;;;;;;;5.50;3.77;;;;;;;14.25;79.77;96606.06;5036221;28;20234;-58
2023/05/30 02:22:52;;;;;;;4.83;3.83;;;;;;;14.20;78.17;96608.41;5036236;28;20524;-58
2023/05/30 02:25:20;;;;;;;4.20;3.80;;;;;;;14.18;79.10;96607.72;5035714;28;20211;-57
2023/05/30 02:27:49;;;;;;;4.43;3.87;;;;;;;14.19;78.15;96614.72;5023664;28;20235;-58
2023/05/30 02:30:17;;;;;;;4.07;3.30;;;;;;;14.24;79.79;96609.72;5032405;28;20208;-58
2023/05/30 02:32:44;;;;;;;4.10;3.70;;;;;;;14.20;79.57;96606.56;5035383;28;20208;-57
2023/05/30 02:35:12;;;;;;;4.47;3.80;;;;;;;14.17;80.40;96606.06;5036190;28;20220;-58
2023/05/30 02:37:39;;;;;;;4.33;3.93;;;;;;;14.15;79.65;96613.38;5019695;28;20208;-56
2023/05/30 02:40:10;;;;;;;6.07;3.90;;;;;;;14.21;79.71;96608.22;5035869;28;20269;-56
2023/05/30 02:42:36;;;;;;;4.10;3.80;;;;;;;14.19;79.40;96610.22;5037004;28;20231;-57
2023/05/30 02:45:06;;;;;;;4.50;4.10;;;;;;;14.20;80.50;96611.06;5036888;28;20218;-56
2023/05/30 02:47:35;;;;;;;4.20;3.80;;;;;;;14.16;79.63;96612.38;5048996;28;20246;-57
2023/05/30 02:50:02;;;;;;;3.97;3.67;;;;;;;14.25;78.82;96619.34;5058234;28;20204;-58
2023/05/30 02:52:30;;;;;;;4.03;3.63;;;;;;;14.18;78.78;96624.50;5045297;28;20208;-56
2023/05/30 02:54:58;;;;;;;4.90;4.17;;;;;;;14.19;78.83;96628.00;5057629;28;20200;-56
2023/05/30 02:57:25;;;;;;;5.27;4.03;;;;;;;14.21;79.37;96639.28;5045427;28;20203;-56
2023/05/30 02:59:52;;;;;;;4.70;3.90;;;;;;;14.24;78.51;96646.97;5028822;28;20208;-56
2023/05/30 03:02:19;;;;;;;5.17;3.83;;;;;;;14.31;78.24;96646.13;5031821;28;20219;-57
2023/05/30 03:04:46;;;;;;;6.10;3.63;;;;;;;14.19;80.06;96641.31;5038900;28;20290;-55
2023/05/30 03:07:12;;;;;;;3.40;3.20;;;;;;;14.25;80.30;96651.28;5038897;28;20231;-56
2023/05/30 03:09:43;;;;;;;3.97;3.67;;;;;;;14.29;79.82;96641.97;5030413;28;20236;-56
2023/05/30 03:12:10;;;;;;;4.97;3.87;;;;;;;14.33;80.53;96648.63;5034928;28;20323;-56
2023/05/30 03:14:37;;;;;;;3.90;3.53;;;;;;;14.41;79.85;96654.00;5035496;28;20214;-55
2023/05/30 03:17:04;;;;;;;5.00;3.70;;;;;;;14.41;79.42;96651.31;5034173;28;20218;-57
2023/05/30 03:19:31;;;;;;;4.00;3.63;;;;;;;14.41;79.24;96648.66;5035149;28;20623;-56
2023/05/30 03:21:58;;;;;;;3.73;3.50;;;;;;;14.38;80.03;96646.34;5034869;28;20219;-56
2023/05/30 03:24:29;;;;;;;4.10;3.77;;;;;;;14.42;78.77;96652.97;5035173;28;20204;-55
2023/05/30 03:26:56;;;;;;;4.20;3.80;;;;;;;14.37;78.13;96656.16;5034476;28;20737;-56
2023/05/30 03:29:23;;;;;;;5.43;4.27;;;;;;;14.40;81.06;96663.78;5035099;28;20204;-55
2023/05/30 03:31:49;;;;;;;5.60;4.20;;;;;;;14.36;80.97;96658.97;5033640;28;20216;-56
2023/05/30 03:34:16;;;;;;;4.67;4.10;;;;;;;14.34;81.66;96666.28;5034855;28;20212;-55
2023/05/30 03:36:43;;;;;;;4.37;3.97;;;;;;;14.30;81.75;96667.59;5034290;28;20545;-54
2023/05/30 03:39:09;;;;;;;3.77;3.50;;;;;;;14.34;81.05;96664.47;5031810;28;20207;-55
2023/05/30 03:41:36;;;;;;;4.00;3.70;;;;;;;14.27;82.75;96675.91;5033901;28;20620;-56
2023/05/30 03:44:04;;;;;;;4.13;3.83;;;;;;;14.19;83.11;96673.22;5031863;28;20227;-55
2023/05/30 03:46:31;;;;;;;3.83;3.53;;;;;;;14.21;83.79;96673.88;5026553;28;20702;-55
2023/05/30 03:48:58;;;;;;;4.57;4.17;;;;;;;14.20;84.74;96665.09;5031708;28;20204;-56
2023/05/30 03:51:24;;;;;;;4.10;3.50;;;;;;;14.16;84.76;96669.06;5035125;28;20207;-57
2023/05/30 03:53:51;;;;;;;4.40;4.00;;;;;;;14.11;84.96;96670.53;5014565;28;20293;-55
2023/05/30 03:56:17;;;;;;;3.93;3.63;;;;;;;14.14;85.68;96667.53;5019587;28;20203;-56
2023/05/30 03:58:44;;;;;;;4.10;3.70;;;;;;;14.08;85.12;96670.88;5036951;28;20208;-56
2023/05/30 04:01:12;;;;;;;7.70;3.73;;;;;;;14.04;85.87;96669.53;5042380;28;20204;-56
2023/05/30 04:03:38;;;;;;;4.13;3.73;;;;;;;14.01;85.48;96673.38;5058565;28;20208;-60
2023/05/30 04:06:06;;;;;;;4.27;3.80;;;;;;;13.94;86.35;96669.69;5060142;28;20202;-58
2023/05/30 04:08:32;;;;;;;4.10;3.70;;;;;;;13.99;86.89;96667.38;5057864;28;20203;-60
2023/05/30 04:11:00;;;;;;;5.43;3.90;;;;;;;14.02;88.75;96675.03;5059381;28;20220;-59
2023/05/30 04:13:26;;;;;;;4.33;3.93;;;;;;;13.98;88.45;96686.16;5061161;28;20204;-58
2023/05/30 04:15:55;;;;;;;4.20;3.77;;;;;;;14.00;89.57;96684.16;5060372;28;20215;-56
2023/05/30 04:18:23;;;;;;;4.87;4.17;;;;;;;14.08;89.03;96685.00;5056141;28;20679;-58
2023/05/30 04:20:51;;;;;;;4.47;3.97;;;;;;;14.23;88.43;96683.38;5039893;28;20562;-57
2023/05/30 04:23:17;;;;;;;5.93;4.00;;;;;;;14.23;88.32;96685.19;5028582;28;20217;-57
2023/05/30 04:25:44;;;;;;;4.73;3.60;;;;;;;14.31;88.57;96695.84;5026144;28;20277;-57
2023/05/30 04:28:12;;;;;;;8.40;5.90;;;;;;;14.31;87.40;96687.88;5039841;28;20302;-57
2023/05/30 04:30:40;;;;;;;7.10;4.50;;;;;;;14.44;87.81;96689.06;5029630;28;20235;-58
2023/05/30 04:33:07;;;;;;;5.87;4.40;;;;;;;14.42;89.00;96690.22;5050341;28;20192;-58
2023/05/30 04:35:35;;;;;;;4.53;4.13;;;;;;;14.50;88.13;96686.72;5053623;28;20214;-58
2023/05/30 04:38:03;;;;;;;5.87;4.07;;;;;;;14.62;87.31;96696.91;5034493;28;20209;-59
2023/05/30 04:40:29;;;;;;;6.37;4.27;;;;;;;14.61;87.87;96689.91;5028768;28;20208;-57
2023/05/30 04:42:55;;;;;;;4.90;4.13;;;;;;;14.66;88.93;96689.41;5037047;28;20269;-58
2023/05/30 04:45:28;;;;;;;4.67;4.27;;;;;;;14.72;89.24;96691.41;5036552;28;20687;-57
2023/05/30 04:47:55;;;;;;;6.40;4.37;;;;;;;14.81;89.67;96685.88;5037740;28;20226;-58
2023/05/30 04:50:24;;;;;;;4.50;4.10;;;;;;;14.89;88.17;96688.53;5038241;28;20250;-57
2023/05/30 04:52:53;;;;;;;5.73;3.60;;;;;;;15.01;86.59;96685.53;5041664;28;20211;-58
2023/05/30 04:55:19;;;;;;;3.87;3.57;;;;;;;15.07;84.37;96692.84;5053797;28;20204;-58
2023/05/30 04:57:46;;;;;;;4.93;3.93;;;;;;;15.21;84.40;96686.81;5042290;28;20640;-58
2023/05/30 05:00:16;;;;;;;4.20;3.80;;;;;;;15.33;83.68;96693.44;5027046;28;20208;-58
2023/05/30 05:02:48;;;;;;;5.63;3.90;;;;;;;15.49;81.29;96701.41;5035055;28;20646;-58
2023/05/30 05:05:14;;;;;;;4.60;3.73;;;;;;;15.66;79.31;96705.69;5037530;28;20208;-58
2023/05/30 05:07:41;;;;;;;5.10;3.90;;;;;;;15.81;79.17;96701.28;5025872;28;20232;-59
2023/05/30 05:10:09;;;;;;;4.10;3.70;;;;;;;16.03;76.01;96710.34;5036787;28;20232;-57
2023/05/30 05:12:36;;;;;;;6.45;3.70;;;;;;;16.21;76.53;96715.41;5036897;28;20215;-58
2023/05/30 05:15:02;;;;;;;4.63;3.73;;;;;;;16.36;76.04;96714.50;5036824;28;20219;-58
2023/05/30 05:17:30;;;;;;;5.40;3.50;;;;;;;16.53;77.56;96717.88;5036935;28;20211;-59
2023/05/30 05:19:57;;;;;;;4.95;4.10;;;;;;;16.51;72.38;96719.06;5037023;28;20212;-59
2023/05/30 05:22:24;;;;;;;4.88;3.53;;;;;;;16.61;71.63;96715.19;5036781;28;20207;-59
2023/05/30 05:24:51;;;;;;;5.88;3.90;;;;;;;16.61;74.39;96725.84;5037235;28;20548;-58
2023/05/30 05:27:19;;;;;;;5.45;4.00;;;;;;;16.63;76.48;96723.00;5036515;28;20232;-58
2023/05/30 05:29:45;;;;;;;7.43;4.03;;;;;;;16.43;76.76;96719.94;5036851;28;20215;-59
2023/05/30 05:32:12;;;;;;;4.43;4.00;;;;;;;16.46;77.03;96727.59;5036320;28;20223;-58
2023/05/30 05:34:38;;;;;;;4.68;3.70;;;;;;;16.50;78.76;96722.72;5036804;28;20203;-56
2023/05/30 05:37:05;;;;;;;6.13;4.30;;;;;;;16.41;71.73;96730.78;5037008;28;20547;-58
2023/05/30 05:39:32;;;;;;;4.25;3.72;;;;;;;16.54;72.76;96724.88;5036878;28;20226;-58
2023/05/30 05:41:58;;;;;;;4.43;3.95;;;;;;;16.60;72.88;96726.84;5036697;28;20212;-58
2023/05/30 05:44:26;;;;;;;6.90;4.53;;;;;;;16.72;71.01;96727.28;5036711;28;20211;-58
2023/05/30 05:46:53;;;;;;;4.30;3.90;;;;;;;16.88;68.19;96717.28;5035763;28;20207;-58
2023/05/30 05:49:19;;;;;;;4.82;3.80;;;;;;;17.17;69.63;96721.88;5036492;28;20208;-57
2023/05/30 05:51:46;;;;;;;4.53;3.70;;;;;;;17.39;69.68;96722.81;5036598;28;20235;-57
2023/05/30 05:54:12;;;;;;;3.78;3.40;;;;;;;17.58;71.27;96718.78;5033409;28;20678;-58
2023/05/30 05:56:38;;;;;;;4.68;3.58;;;;;;;17.68;67.99;96730.03;5035784;28;20208;-58
2023/05/30 05:59:06;;;;;;;5.90;4.03;;;;;;;17.69;67.07;96735.19;5035515;28;20207;-59
2023/05/30 06:01:34;;;;;;;4.95;4.20;;;;;;;18.06;65.95;96733.41;5024309;28;20243;-58
2023/05/30 06:04:03;;;;;;;3.97;3.60;;;;;;;18.45;63.69;96733.88;5036521;28;20203;-58
2023/05/30 06:06:29;;;;;;;7.00;4.22;;;;;;;18.83;61.79;96737.16;5030438;28;20204;-58
2023/05/30 06:08:56;;;;;;;4.45;3.67;;;;;;;19.20;61.26;96722.66;5031259;28;20238;-58
2023/05/30 06:11:23;;;;;;;6.38;4.05;;;;;;;19.27;58.46;96729.69;5036286;28;20200;-59
2023/05/30 06:13:49;;;;;;;4.78;3.95;;;;;;;19.15;58.10;96733.13;5036162;28;20212;-57
2023/05/30 06:16:16;;;;;;;5.95;4.03;;;;;;;19.54;57.01;96738.81;5036007;28;20586;-58
2023/05/30 06:18:44;;;;;;;7.78;4.10;;;;;;;19.72;59.39;96739.13;5036243;28;20223;-58
2023/05/30 06:21:10;;;;;;;5.25;4.00;;;;;;;19.57;56.26;96745.63;5035965;28;20215;-59
2023/05/30 06:23:37;;;;;;;7.40;4.15;;;;;;;19.79;57.08;96741.84;5035964;28;20212;-58
2023/05/30 06:26:03;;;;;;;7.03;3.83;;;;;;;20.10;56.80;96752.09;5035548;28;20576;-59
2023/05/30 06:28:30;;;;;;;6.28;3.60;;;;;;;20.45;57.49;96748.34;5035737;28;20228;-58
2023/05/30 06:30:56;;;;;;;4.07;3.67;;;;;;;20.70;55.74;96752.13;5035244;28;20635;-57
2023/05/30 06:33:23;;;;;;;5.38;3.70;;;;;;;20.77;53.88;96761.03;5036010;28;20203;-59
2023/05/30 06:35:51;;;;;;;4.43;3.85;;;;;;;20.94;57.08;96756.09;5035663;28;20215;-57
2023/05/30 06:38:17;;;;;;;6.03;4.07;;;;;;;20.87;54.75;96765.22;5035421;28;20222;-57
2023/05/30 06:40:44;;;;;;;4.20;3.80;;;;;;;21.16;54.75;96773.75;5035720;28;20235;-59
2023/05/30 06:43:10;;;;;;;4.43;3.97;;;;;;;20.88;52.78;96764.16;5035164;28;20659;-57
2023/05/30 06:45:37;;;;;;;4.57;3.95;;;;;;;21.17;52.51;96771.91;5035344;28;20269;-57
2023/05/30 06:48:03;;;;;;;5.47;4.03;;;;;;;21.17;53.02;96777.28;5035274;28;20681;-59
2023/05/30 06:50:30;;;;;;;5.10;3.95;;;;;;;21.12;51.52;96780.56;5035122;28;20215;-58
2023/05/30 06:52:58;;;;;;;5.18;4.00;;;;;;;21.34;52.91;96783.91;5035264;28;20211;-59
2023/05/30 06:55:24;;;;;;;4.65;4.10;;;;;;;21.52;53.54;96775.19;5035373;28;20560;-58
2023/05/30 06:57:54;;;;;;;9.00;3.65;;;;;;;21.58;52.77;96763.59;5035323;28;20199;-58
2023/05/30 07:00:21;;;;;;;4.32;3.28;;;;;;;21.67;53.27;96773.94;5034590;28;20632;-58
2023/05/30 07:02:49;;;;;;;5.53;4.30;;;;;;;21.87;52.54;96773.91;5035154;28;20214;-58
2023/05/30 07:05:16;;;;;;;5.47;4.32;;;;;;;21.61;51.26;96764.00;5035616;28;20212;-58
2023/05/30 07:07:42;;;;;;;7.05;4.18;;;;;;;21.93;49.81;96764.22;5035152;28;20599;-58
2023/05/30 07:10:10;;;;;;;4.45;3.97;;;;;;;21.48;49.65;96764.03;5034771;28;20535;-59
2023/05/30 07:12:37;;;;;;;4.30;3.90;;;;;;;21.76;50.48;96767.31;5035215;28;20265;-58
2023/05/30 07:15:05;;;;;;;5.32;3.90;;;;;;;21.69;51.14;96762.97;5035029;28;20290;-59
2023/05/30 07:17:32;;;;;;;4.45;4.03;;;;;;;22.07;51.52;96763.13;5034773;28;20212;-57
2023/05/30 07:19:58;;;;;;;4.95;3.80;;;;;;;22.18;49.09;96767.84;5035299;28;20215;-58
2023/05/30 07:22:25;;;;;;;4.93;4.43;;;;;;;22.22;48.32;96764.50;5021767;28;20650;-58
2023/05/30 07:24:53;;;;;;;4.45;3.83;;;;;;;22.40;49.88;96763.00;5034944;28;20219;-59
2023/05/30 07:27:21;;;;;;;4.80;3.70;;;;;;;22.75;48.54;96769.69;5022642;28;20207;-58
2023/05/30 07:29:47;;;;;;;5.93;3.70;;;;;;;22.93;48.53;96771.66;5037159;28;20265;-58
2023/05/30 07:32:14;;;;;;;6.82;4.18;;;;;;;23.08;47.10;96766.78;5039620;28;20203;-58
2023/05/30 07:34:41;;;;;;;4.63;3.63;;;;;;;23.00;48.10;96764.34;5038270;28;20215;-59
2023/05/30 07:37:08;;;;;;;5.78;3.90;;;;;;;22.93;50.65;96767.09;5037947;28;20616;-58
2023/05/30 07:39:35;;;;;;;7.10;4.50;;;;;;;23.25;47.79;96767.91;5035484;28;20250;-59
2023/05/30 07:42:01;;;;;;;5.75;4.18;;;;;;;23.26;47.22;96765.00;5035139;28;20223;-58
2023/05/30 07:44:29;;;;;;;4.72;4.28;;;;;;;23.13;44.90;96764.28;5034695;28;20235;-58
2023/05/30 07:46:56;;;;;;;6.07;3.90;;;;;;;23.08;46.88;96756.00;5034437;28;20208;-59
2023/05/30 07:49:23;;;;;;;7.75;4.60;;;;;;;23.06;46.45;96766.19;5035076;28;20238;-58
2023/05/30 07:51:49;;;;;;;4.15;3.67;;;;;;;23.10;47.37;96753.91;5036740;28;20220;-58
2023/05/30 07:54:16;;;;;;;4.72;4.25;;;;;;;23.05;48.50;96761.84;5035671;28;20207;-60
2023/05/30 07:56:42;;;;;;;7.40;4.13;;;;;;;23.28;46.65;96759.38;5036034;28;20278;-59
2023/05/30 07:59:09;;;;;;;6.15;4.18;;;;;;;23.33;46.94;96759.53;5034642;28;20226;-60
2023/05/30 08:01:37;;;;;;;5.63;4.13;;;;;;;23.56;46.64;96751.69;5024197;28;20222;-59
2023/05/30 08:04:03;;;;;;;4.65;3.90;;;;;;;23.82;48.34;96757.88;5035703;28;20203;-59
2023/05/30 08:06:33;;;;;;;4.25;3.70;;;;;;;23.87;45.27;96755.34;5030963;28;20244;-59
2023/05/30 08:09:00;;;;;;;4.50;3.97;;;;;;;23.81;45.20;96753.56;5031534;28;20735;-58
2023/05/30 08:11:26;;;;;;;5.80;3.60;;;;;;;23.67;44.27;96753.66;5035823;28;20215;-59
2023/05/30 08:13:53;;;;;;;5.07;4.38;;;;;;;23.98;45.81;96757.31;5034786;28;20215;-58
2023/05/30 08:16:21;;;;;;;4.03;3.65;;;;;;;23.92;45.31;96753.63;5034219;28;20239;-58
2023/05/30 08:18:51;;;;;;;7.43;3.92;;;;;;;23.84;47.16;96750.41;5035863;28;20558;-57
2023/05/30 08:21:20;;;;;;;5.82;4.07;;;;;;;23.95;44.85;96746.97;5032113;28;20263;-58
2023/05/30 08:23:47;;;;;;;6.03;4.22;;;;;;;23.61;44.19;96756.44;5032595;28;20215;-56
2023/05/30 08:26:16;;;;;;;6.20;4.05;;;;;;;23.87;44.34;96741.84;5035184;28;20215;-58
2023/05/30 08:28:42;;;;;;;5.68;4.10;;;;;;;23.90;44.37;96744.09;5035579;28;20315;-59
2023/05/30 08:31:09;;;;;;;4.75;3.90;;;;;;;24.16;45.08;96743.84;5039166;28;20230;-59
2023/05/30 08:33:37;;;;;;;5.47;4.30;;;;;;;24.32;43.68;96745.09;5039488;28;20635;-59
2023/05/30 08:36:05;;;;;;;5.97;4.13;;;;;;;24.37;46.51;96750.66;5046179;28;20203;-59
2023/05/30 08:38:32;;;;;;;5.22;4.10;;;;;;;24.55;45.53;96742.53;5041173;28;20203;-59
2023/05/30 08:41:00;;;;;;;4.47;4.07;;;;;;;24.52;42.30;96745.66;5034992;28;20294;-58
2023/05/30 08:43:26;;;;;;;5.63;4.05;;;;;;;24.46;44.61;96743.88;5035070;28;20204;-57
2023/05/30 08:45:54;;;;;;;7.70;4.35;;;;;;;24.51;44.59;96744.03;5034646;28;20211;-58
2023/05/30 08:48:22;;;;;;;5.22;4.53;;;;;;;24.76;43.95;96744.72;5036756;28;20376;-59
2023/05/30 08:50:48;;;;;;;5.25;4.40;;;;;;;24.72;43.66;96740.84;5040896;28;20270;-59
2023/05/30 08:53:25;;;;;;;8.27;4.18;;;;;;;24.64;41.95;96738.44;5039788;28;20211;-61
2023/05/30 08:55:57;;;;;;;6.13;4.45;;;;;;;24.72;44.31;96747.06;5038212;28;20554;-59
2023/05/30 08:58:27;;;;;;;5.55;4.00;;;;;;;24.97;44.57;96746.94;5037899;28;20207;-59
2023/05/30 09:00:53;;;;;;;4.85;3.88;;;;;;;24.43;43.44;96733.53;5037572;28;20307;-58
2023/05/30 09:03:22;;;;;;;6.03;4.00;;;;;;;24.63;43.91;96734.06;5029554;28;20196;-59
2023/05/30 09:05:49;;;;;;;4.13;3.80;;;;;;;24.58;44.38;96731.25;5019851;28;20283;-60
2023/05/30 09:08:17;;;;;;;4.03;3.70;;;;;;;24.77;47.15;96735.53;5037777;28;20235;-58
2023/05/30 09:10:48;;;;;;;4.55;4.15;;;;;;;24.64;44.52;96736.56;5036572;28;20557;-59
2023/05/30 09:13:14;;;;;;;4.60;4.20;;;;;;;24.59;46.78;96724.75;5037318;28;20200;-59
2023/05/30 09:15:42;;;;;;;3.88;3.55;;;;;;;24.57;45.09;96735.00;5036439;28;20238;-59
2023/05/30 09:18:08;;;;;;;5.45;4.03;;;;;;;24.60;47.56;96735.38;5037459;28;20197;-59
2023/05/30 09:20:37;;;;;;;5.15;4.18;;;;;;;25.06;45.37;96737.44;5037356;28;20207;-58
2023/05/30 09:23:05;;;;;;;4.68;4.20;;;;;;;25.14;44.10;96742.53;5037482;28;20269;-59
2023/05/30 09:25:43;;;;;;;5.50;4.03;;;;;;;25.31;43.93;96742.66;5037725;28;20211;-59
2023/05/30 09:28:09;;;;;;;7.18;4.03;;;;;;;25.04;43.11;96746.84;5037965;28;20212;-58
2023/05/30 09:30:52;;;;;;;6.28;4.43;;;;;;;25.10;42.35;96737.78;5036742;28;20578;-59
2023/05/30 09:33:19;;;;;;;5.45;4.07;;;;;;;25.39;44.12;96736.91;5037309;28;20226;-57
2023/05/30 09:35:47;;;;;;;6.65;4.50;;;;;;;25.22;42.89;96738.66;5037533;28;20237;-59
2023/05/30 09:38:16;;;;;;;6.72;4.10;;;;;;;25.37;44.78;96730.88;5036281;28;20701;-58
2023/05/30 09:40:43;;;;;;;6.25;4.68;;;;;;;25.19;44.00;96734.50;5025905;28;20208;-58
2023/05/30 09:43:10;;;;;;;4.10;3.80;;;;;;;25.40;44.18;96729.63;5036983;28;20207;-58
2023/05/30 09:45:36;;;;;;;9.30;4.55;;;;;;;25.31;43.03;96733.72;5036849;28;20215;-59
2023/05/30 09:48:03;;;;;;;4.68;4.15;;;;;;;25.42;43.74;96728.31;5038009;28;20272;-58
2023/05/30 09:50:31;;;;;;;5.15;4.65;;;;;;;25.52;43.98;96731.31;5040157;28;20207;-59
2023/05/30 09:53:01;;;;;;;6.85;4.30;;;;;;;25.65;42.38;96722.09;5026306;28;20208;-60
2023/05/30 09:55:41;;;;;;;5.85;4.07;;;;;;;25.78;45.11;96726.47;5036844;28;20200;-59
2023/05/30 09:58:18;;;;;;;4.53;3.90;;;;;;;25.81;42.80;96726.00;5036733;28;20207;-58
2023/05/30 10:00:50;;;;;;;4.47;4.05;;;;;;;25.69;44.77;96724.09;5022611;28;20200;-58
2023/05/30 10:03:16;;;;;;;4.05;3.75;;;;;;;25.66;43.77;96727.28;5036719;28;20195;-59
2023/05/30 10:05:43;;;;;;;5.35;3.88;;;;;;;25.88;43.36;96722.09;5036712;28;20208;-58
2023/05/30 10:08:10;;;;;;;4.78;4.25;;;;;;;25.99;44.43;96728.56;5036512;28;20223;-58
2023/05/30 10:10:36;;;;;;;3.97;3.67;;;;;;;25.50;43.01;96730.69;5017130;28;20243;-59
2023/05/30 10:13:03;;;;;;;5.90;3.83;;;;;;;25.70;41.28;96725.78;5035509;28;20207;-58
2023/05/30 10:15:31;;;;;;;6.22;4.60;;;;;;;26.17;43.64;96715.72;5035924;28;20522;-58
2023/05/30 10:18:02;;;;;;;6.05;4.40;;;;;;;25.47;40.64;96711.38;5035890;28;20215;-60
2023/05/30 10:20:29;;;;;;;5.85;3.88;;;;;;;26.19;42.60;96712.75;5023706;28;20208;-58
2023/05/30 10:22:57;;;;;;;5.45;3.72;;;;;;;26.37;43.89;96704.47;5036039;28;20218;-61
2023/05/30 10:25:27;;;;;;;4.28;3.88;;;;;;;26.21;41.73;96711.50;5035958;28;20222;-58
2023/05/30 10:27:54;;;;;;;4.40;4.00;;;;;;;26.17;41.07;96704.03;5036172;28;20203;-59
2023/05/30 10:30:24;;;;;;;4.32;3.80;;;;;;;26.35;42.09;96698.47;5032962;28;20227;-58
2023/05/30 10:32:56;;;;;;;3.97;3.67;;;;;;;26.25;43.02;96706.41;5027664;28;20219;-58
2023/05/30 10:35:23;;;;;;;5.72;4.10;;;;;;;26.41;41.38;96702.09;5036035;28;20257;-59
2023/05/30 10:37:51;;;;;;;4.78;4.32;;;;;;;26.01;39.90;96715.59;5036017;28;20222;-59
2023/05/30 10:40:24;;;;;;;4.07;3.78;;;;;;;26.05;39.39;96708.63;5035748;28;20204;-58
2023/05/30 10:42:59;;;;;;;6.20;3.90;;;;;;;26.16;40.29;96702.38;5035708;28;20694;-59
2023/05/30 10:45:30;;;;;;;7.15;4.00;;;;;;;26.49;40.62;96699.84;5035292;28;20203;-59
2023/05/30 10:48:05;;;;;;;5.28;4.32;;;;;;;26.55;38.83;96696.16;5034891;28;20223;-58
2023/05/30 10:50:39;;;;;;;4.65;4.18;;;;;;;26.19;39.11;96696.50;5025074;28;20223;-59
2023/05/30 10:53:12;;;;;;;6.15;4.10;;;;;;;26.31;38.05;96691.06;5035583;28;20220;-60
2023/05/30 10:55:39;;;;;;;4.63;4.18;;;;;;;26.33;38.80;96687.03;5035077;28;20533;-58
2023/05/30 10:58:37;;;;;;;5.30;4.10;;;;;;;26.47;40.22;96690.28;5034734;28;20211;-59
2023/05/30 11:01:23;;;;;;;5.10;4.20;;;;;;;26.61;40.01;96692.47;5022112;28;20222;-59
2023/05/30 11:03:56;;;;;;;4.50;4.03;;;;;;;26.34;42.34;96687.84;5035653;28;20291;-59
2023/05/30 11:06:24;;;;;;;5.85;4.03;;;;;;;26.77;39.48;96684.59;5017077;28;20654;-59
2023/05/30 11:08:52;;;;;;;6.25;4.20;;;;;;;26.38;40.24;96679.00;5028657;28;20254;-59
2023/05/30 11:11:20;;;;;;;5.55;3.70;;;;;;;26.10;40.39;96687.06;5035024;28;20200;-58
2023/05/30 11:13:47;;;;;;;4.72;4.07;;;;;;;26.31;40.84;96678.31;5021833;28;20232;-59
2023/05/30 11:16:24;;;;;;;5.07;4.05;;;;;;;25.87;39.98;96682.50;5034793;28;20674;-58
2023/05/30 11:18:53;;;;;;;5.30;4.15;;;;;;;26.11;41.49;96677.91;5035364;28;20200;-58
2023/05/30 11:21:49;;;;;;;4.47;4.07;;;;;;;26.54;40.98;96683.66;5036553;28;20298;-58
2023/05/30 11:24:17;;;;;;;7.57;4.25;;;;;;;26.63;38.90;96676.78;5021766;28;20216;-59
2023/05/30 11:26:55;;;;;;;5.45;4.25;;;;;;;26.88;40.98;96678.34;5035394;28;20611;-58
2023/05/30 11:29:37;;;;;;;6.05;4.25;;;;;;;26.81;39.63;96669.50;5036018;28;20246;-59
2023/05/30 11:32:06;;;;;;;5.00;3.88;;;;;;;27.18;41.34;96666.09;5034739;28;20215;-59
2023/05/30 11:34:34;;;;;;;5.03;3.67;;;;;;;27.26;39.25;96659.44;5034978;28;20239;-59
2023/05/30 11:37:02;;;;;;;4.82;4.10;;;;;;;27.06;38.91;96662.66;5034870;28;20227;-59
2023/05/30 11:39:28;;;;;;;4.10;3.70;;;;;;;26.92;39.56;96649.63;5035182;28;20215;-58